createdAt,value
2023-06-15T00:00:22.457Z,7.72
2023-06-15T00:02:48.991Z,7.22
2023-06-15T00:05:17.903Z,7.10
2023-06-15T00:07:46.403Z,6.65
2023-06-15T00:10:15.186Z,7.00
2023-06-15T00:12:41.469Z,7.03
2023-06-15T00:15:08.508Z,7.53
2023-06-15T00:17:44.646Z,7.20
2023-06-15T00:20:10.984Z,7.32
2023-06-15T00:22:37.252Z,6.68
2023-06-15T00:25:04.029Z,6.45
2023-06-15T00:27:30.380Z,8.05
2023-06-15T00:29:56.662Z,7.13
2023-06-15T00:32:25.000Z,7.45
2023-06-15T00:34:54.130Z,7.18
2023-06-15T00:37:23.229Z,7.75
2023-06-15T00:39:51.131Z,8.75
2023-06-15T00:42:17.607Z,8.02
2023-06-15T00:44:43.877Z,8.27
2023-06-15T00:47:10.228Z,7.25
2023-06-15T00:49:36.568Z,7.97
2023-06-15T00:52:02.881Z,7.20
2023-06-15T00:54:30.012Z,7.80
2023-06-15T00:57:00.364Z,7.82
2023-06-15T00:59:35.033Z,6.95
2023-06-15T01:02:01.277Z,8.18
2023-06-15T01:04:29.681Z,7.05
2023-06-15T01:06:58.543Z,7.40
2023-06-15T01:09:29.493Z,7.07
2023-06-15T01:12:00.992Z,7.82
2023-06-15T01:14:28.863Z,7.15
2023-06-15T01:16:55.175Z,7.32
2023-06-15T01:19:21.548Z,7.93
2023-06-15T01:21:51.591Z,7.60
2023-06-15T01:24:19.867Z,7.70
2023-06-15T01:26:46.134Z,7.05
2023-06-15T01:29:12.383Z,7.22
2023-06-15T01:31:42.621Z,7.43
2023-06-15T01:34:12.974Z,7.38
2023-06-15T01:36:42.947Z,6.95
2023-06-15T01:39:10.476Z,8.60
2023-06-15T01:41:39.298Z,8.45
2023-06-15T01:44:05.626Z,6.95
2023-06-15T01:46:32.009Z,7.50
2023-06-15T01:48:58.560Z,7.85
2023-06-15T01:51:24.850Z,8.63
2023-06-15T01:53:57.774Z,8.20
2023-06-15T01:56:26.140Z,8.13
2023-06-15T01:58:52.466Z,8.45
2023-06-15T02:01:19.158Z,8.23
2023-06-15T02:03:46.998Z,8.18
2023-06-15T02:06:13.332Z,7.00
2023-06-15T02:08:39.711Z,7.80
2023-06-15T02:11:06.149Z,7.88
2023-06-15T02:13:33.272Z,8.40
2023-06-15T02:15:59.560Z,7.97
2023-06-15T02:18:25.881Z,7.63
2023-06-15T02:20:52.316Z,8.43
2023-06-15T02:23:18.650Z,8.23
2023-06-15T02:25:44.920Z,7.93
2023-06-15T02:28:11.183Z,7.78
2023-06-15T02:30:37.597Z,7.43
2023-06-15T02:33:07.235Z,8.10
2023-06-15T02:35:33.533Z,7.43
2023-06-15T02:38:01.668Z,7.45
2023-06-15T02:40:28.037Z,7.63
2023-06-15T02:42:55.799Z,8.10
2023-06-15T02:45:22.084Z,7.97
2023-06-15T02:47:48.556Z,8.45
2023-06-15T02:50:25.011Z,8.23
2023-06-15T02:52:51.278Z,7.30
2023-06-15T02:55:21.064Z,7.83
2023-06-15T02:57:47.504Z,7.90
2023-06-15T03:00:13.774Z,6.95
2023-06-15T03:02:40.167Z,8.00
2023-06-15T03:05:06.569Z,7.95
2023-06-15T03:07:32.893Z,8.85
2023-06-15T03:10:00.953Z,7.95
2023-06-15T03:12:30.560Z,7.88
2023-06-15T03:15:04.576Z,7.25
2023-06-15T03:17:30.933Z,8.15
2023-06-15T03:19:57.290Z,8.82
2023-06-15T03:22:23.579Z,7.95
2023-06-15T03:24:53.812Z,7.55
2023-06-15T03:27:20.061Z,7.65
2023-06-15T03:29:46.366Z,7.95
2023-06-15T03:32:17.009Z,8.38
2023-06-15T03:34:45.466Z,8.50
2023-06-15T03:37:13.497Z,7.82
2023-06-15T03:39:41.692Z,8.15
2023-06-15T03:42:08.022Z,7.82
2023-06-15T03:44:34.374Z,8.77
2023-06-15T03:47:00.788Z,8.55
2023-06-15T03:49:27.067Z,13.00
2023-06-15T03:51:53.892Z,8.70
2023-06-15T03:54:30.141Z,8.88
2023-06-15T03:56:56.912Z,8.07
2023-06-15T03:59:23.374Z,8.30
2023-06-15T04:01:49.637Z,7.55
2023-06-15T04:04:16.075Z,7.45
2023-06-15T04:06:42.802Z,8.13
2023-06-15T04:09:09.080Z,7.78
2023-06-15T04:11:35.374Z,8.30
2023-06-15T04:14:02.974Z,7.30
2023-06-15T04:16:29.248Z,9.48
2023-06-15T04:18:55.641Z,8.32
2023-06-15T04:21:21.913Z,7.43
2023-06-15T04:23:51.807Z,7.20
2023-06-15T04:26:18.071Z,6.95
2023-06-15T04:28:44.711Z,7.95
2023-06-15T04:31:11.004Z,8.90
2023-06-15T04:33:38.083Z,7.63
2023-06-15T04:36:07.069Z,7.53
2023-06-15T04:38:36.079Z,8.77
2023-06-15T04:41:02.731Z,7.45
2023-06-15T04:43:29.002Z,9.20
2023-06-15T04:45:55.617Z,10.05
2023-06-15T04:48:21.973Z,10.57
2023-06-15T04:50:48.960Z,8.30
2023-06-15T04:53:15.486Z,7.60
2023-06-15T04:55:45.308Z,9.27
2023-06-15T04:58:21.471Z,11.07
2023-06-15T05:00:57.698Z,8.10
2023-06-15T05:03:24.209Z,7.57
2023-06-15T05:05:58.152Z,9.07
2023-06-15T05:08:24.418Z,9.13
2023-06-15T05:10:50.899Z,8.25
2023-06-15T05:13:25.058Z,8.27
2023-06-15T05:15:59.350Z,7.97
2023-06-15T05:18:25.620Z,8.57
2023-06-15T05:20:51.873Z,7.57
2023-06-15T05:23:18.166Z,8.65
2023-06-15T05:25:44.481Z,8.15
2023-06-15T05:28:11.560Z,7.72
2023-06-15T05:30:37.854Z,8.10
2023-06-15T05:33:04.460Z,7.60
2023-06-15T05:35:30.789Z,7.50
2023-06-15T05:37:57.068Z,8.35
2023-06-15T05:40:23.692Z,7.20
2023-06-15T05:42:49.972Z,8.00
2023-06-15T05:45:21.518Z,8.90
2023-06-15T05:47:48.076Z,8.13
2023-06-15T05:50:23.066Z,8.43
2023-06-15T05:52:49.357Z,8.45
2023-06-15T05:55:20.374Z,7.90
2023-06-15T05:57:46.727Z,9.48
2023-06-15T06:00:12.993Z,7.20
2023-06-15T06:02:39.306Z,10.27
2023-06-15T06:05:06.740Z,8.98
2023-06-15T06:07:33.022Z,8.23
2023-06-15T06:09:59.519Z,8.32
2023-06-15T06:12:27.694Z,7.70
2023-06-15T06:14:54.062Z,9.05
2023-06-15T06:17:42.864Z,8.32
2023-06-15T06:20:06.760Z,8.52
2023-06-15T06:22:33.018Z,8.70
2023-06-15T06:24:59.321Z,7.88
2023-06-15T06:27:26.681Z,8.30
2023-06-15T06:29:52.957Z,9.52
2023-06-15T06:32:22.342Z,8.33
2023-06-15T06:34:54.482Z,9.57
2023-06-15T06:37:30.720Z,7.93
2023-06-15T06:39:57.806Z,9.57
2023-06-15T06:42:24.074Z,8.52
2023-06-15T06:44:50.323Z,9.30
2023-06-15T06:47:16.727Z,8.30
2023-06-15T06:49:46.740Z,8.38
2023-06-15T06:52:13.472Z,9.23
2023-06-15T06:54:39.803Z,8.48
2023-06-15T06:57:11.242Z,8.50
2023-06-15T06:59:43.777Z,8.65
2023-06-15T07:02:11.662Z,9.80
2023-06-15T07:04:39.060Z,8.77
2023-06-15T07:07:05.497Z,8.38
2023-06-15T07:09:32.576Z,8.93
2023-06-15T07:11:58.852Z,9.63
2023-06-15T07:14:25.203Z,7.78
2023-06-15T07:16:51.458Z,9.23
2023-06-15T07:19:17.934Z,8.00
2023-06-15T07:21:44.212Z,7.72
2023-06-15T07:24:10.562Z,9.18
2023-06-15T07:26:36.889Z,8.13
2023-06-15T07:29:07.305Z,7.63
2023-06-15T07:31:38.287Z,7.57
2023-06-15T07:34:10.006Z,7.97
2023-06-15T07:36:42.101Z,8.10
2023-06-15T07:39:08.412Z,8.65
2023-06-15T07:41:34.675Z,8.20
2023-06-15T07:44:03.107Z,7.55
2023-06-15T07:46:31.432Z,8.40
2023-06-15T07:48:57.788Z,7.32
2023-06-15T07:51:37.626Z,7.05
2023-06-15T07:54:06.065Z,7.25
2023-06-15T07:56:32.327Z,7.70
2023-06-15T07:58:58.823Z,7.57
2023-06-15T08:01:25.165Z,8.52
2023-06-15T08:03:51.481Z,10.27
2023-06-15T08:06:26.218Z,8.57
2023-06-15T08:08:52.481Z,7.57
2023-06-15T08:11:25.578Z,8.32
2023-06-15T08:13:51.823Z,8.05
2023-06-15T08:16:20.663Z,7.85
2023-06-15T08:18:46.945Z,8.85
2023-06-15T08:21:13.259Z,8.65
2023-06-15T08:23:39.543Z,9.95
2023-06-15T08:26:08.394Z,9.18
2023-06-15T08:28:51.433Z,8.93
2023-06-15T08:31:19.372Z,8.02
2023-06-15T08:33:45.676Z,9.20
2023-06-15T08:36:11.976Z,8.18
2023-06-15T08:38:38.217Z,9.07
2023-06-15T08:41:04.478Z,7.47
2023-06-15T08:43:30.729Z,8.35
2023-06-15T08:45:58.813Z,8.80
2023-06-15T08:48:25.670Z,8.70
2023-06-15T08:50:54.239Z,10.43
2023-06-15T08:53:20.539Z,9.02
2023-06-15T08:55:48.602Z,8.90
2023-06-15T08:58:14.894Z,7.85
2023-06-15T09:00:41.413Z,8.27
2023-06-15T09:03:08.322Z,7.82
2023-06-15T09:05:37.220Z,8.07
2023-06-15T09:08:04.212Z,9.70
2023-06-15T09:10:30.497Z,8.52
2023-06-15T09:12:56.775Z,9.50
2023-06-15T09:15:23.044Z,8.25
2023-06-15T09:17:49.349Z,9.52
2023-06-15T09:20:21.830Z,7.55
2023-06-15T09:22:48.220Z,10.02
2023-06-15T09:25:14.491Z,7.32
2023-06-15T09:27:44.370Z,9.55
2023-06-15T09:30:16.408Z,9.40
2023-06-15T09:32:44.165Z,10.07
2023-06-15T09:35:10.444Z,8.52
2023-06-15T09:37:36.888Z,10.57
2023-06-15T09:40:03.232Z,17.35
2023-06-15T09:42:29.788Z,13.75
2023-06-15T09:44:56.635Z,9.02
2023-06-15T09:47:26.347Z,9.98
2023-06-15T09:49:53.119Z,9.75
2023-06-15T09:52:19.653Z,13.80
2023-06-15T09:54:45.922Z,12.30
2023-06-15T09:57:12.177Z,13.65
2023-06-15T09:59:38.548Z,14.25
2023-06-15T10:02:04.811Z,13.55
2023-06-15T10:04:31.242Z,11.13
2023-06-15T10:07:07.266Z,16.50
2023-06-15T10:09:43.500Z,11.68
2023-06-15T10:12:13.551Z,12.43
2023-06-15T10:14:40.905Z,13.82
2023-06-15T10:17:07.172Z,12.57
2023-06-15T10:19:33.605Z,13.55
2023-06-15T10:22:00.058Z,13.23
2023-06-15T10:24:27.373Z,15.80
2023-06-15T10:26:55.829Z,15.32
2023-06-15T10:29:22.084Z,12.23
2023-06-15T10:31:49.538Z,11.95
2023-06-15T10:34:18.860Z,14.18
2023-06-15T10:36:55.128Z,12.52
2023-06-15T10:39:22.805Z,13.38
2023-06-15T10:41:49.060Z,15.43
2023-06-15T10:44:25.104Z,11.85
2023-06-15T10:46:51.374Z,15.32
2023-06-15T10:49:18.261Z,11.88
2023-06-15T10:51:44.922Z,13.73
2023-06-15T10:54:11.230Z,10.88
2023-06-15T10:56:37.750Z,10.75
2023-06-15T10:59:04.043Z,11.93
2023-06-15T11:01:33.143Z,12.95
2023-06-15T11:04:07.482Z,10.82
2023-06-15T11:06:43.768Z,12.05
2023-06-15T11:09:10.591Z,12.27
2023-06-15T11:11:37.217Z,11.07
2023-06-15T11:14:03.581Z,11.10
2023-06-15T11:16:30.599Z,13.02
2023-06-15T11:18:58.915Z,12.65
2023-06-15T11:21:25.702Z,10.27
2023-06-15T11:23:52.034Z,10.45
2023-06-15T11:26:21.393Z,12.60
2023-06-15T11:28:50.915Z,10.57
2023-06-15T11:31:17.507Z,11.60
2023-06-15T11:33:43.778Z,11.93
2023-06-15T11:36:10.019Z,11.95
2023-06-15T11:38:38.102Z,11.88
2023-06-15T11:41:04.354Z,14.40
2023-06-15T11:43:33.878Z,11.77
2023-06-15T11:46:00.241Z,10.73
2023-06-15T11:48:26.832Z,10.55
2023-06-15T11:50:53.157Z,11.60
2023-06-15T11:53:21.372Z,9.90
2023-06-15T11:55:47.658Z,10.65
2023-06-15T11:58:14.628Z,11.43
2023-06-15T12:00:40.901Z,10.52
2023-06-15T12:03:07.167Z,13.23
2023-06-15T12:05:33.495Z,11.38
2023-06-15T12:08:00.488Z,9.65
2023-06-15T12:10:28.138Z,9.90
2023-06-15T12:12:55.851Z,10.55
2023-06-15T12:15:22.411Z,9.70
2023-06-15T12:17:48.827Z,10.50
2023-06-15T12:20:15.455Z,11.40
2023-06-15T12:22:41.980Z,10.30
2023-06-15T12:25:09.937Z,11.85
2023-06-15T12:27:38.751Z,11.73
2023-06-15T12:30:05.014Z,11.15
2023-06-15T12:32:31.701Z,11.52
2023-06-15T12:35:01.250Z,8.87
2023-06-15T12:37:38.971Z,12.13
2023-06-15T12:40:12.577Z,10.55
2023-06-15T12:42:38.835Z,11.38
2023-06-15T12:45:05.086Z,12.73
2023-06-15T12:47:31.504Z,14.70
2023-06-15T12:49:57.793Z,11.40
2023-06-15T12:52:24.084Z,10.43
2023-06-15T12:54:50.350Z,11.30
2023-06-15T12:57:18.813Z,13.13
2023-06-15T12:59:45.897Z,9.45
2023-06-15T13:02:12.165Z,11.27
2023-06-15T13:04:39.157Z,10.13
2023-06-15T13:07:05.619Z,11.50
2023-06-15T13:09:31.874Z,11.57
2023-06-15T13:11:58.222Z,13.45
2023-06-15T13:14:24.535Z,11.40
2023-06-15T13:16:53.005Z,10.40
2023-06-15T13:19:19.363Z,9.65
2023-06-15T13:21:45.718Z,9.77
2023-06-15T13:24:12.084Z,10.15
2023-06-15T13:26:38.532Z,10.90
2023-06-15T13:29:06.430Z,11.32
2023-06-15T13:31:34.836Z,11.13
2023-06-15T13:34:01.120Z,12.05
2023-06-15T13:36:27.396Z,9.40
2023-06-15T13:38:53.648Z,9.48
2023-06-15T13:41:20.028Z,10.57
2023-06-15T13:43:46.311Z,9.07
2023-06-15T13:46:12.689Z,9.80
2023-06-15T13:48:40.498Z,10.43
2023-06-15T13:51:06.826Z,9.65
2023-06-15T13:53:35.377Z,10.10
2023-06-15T13:56:03.376Z,9.77
2023-06-15T13:58:35.177Z,10.52
2023-06-15T14:01:01.799Z,9.63
2023-06-15T14:03:28.186Z,8.85
2023-06-15T14:05:59.123Z,9.65
2023-06-15T14:08:25.413Z,13.57
2023-06-15T14:10:58.587Z,10.70
2023-06-15T14:13:27.986Z,8.90
2023-06-15T14:15:54.308Z,9.68
2023-06-15T14:18:20.612Z,10.95
2023-06-15T14:20:49.952Z,8.40
2023-06-15T14:23:16.420Z,9.27
2023-06-15T14:25:42.711Z,10.02
2023-06-15T14:28:09.005Z,11.18
2023-06-15T14:30:35.260Z,9.07
2023-06-15T14:33:04.018Z,9.48
2023-06-15T14:35:30.282Z,9.82
2023-06-15T14:37:56.573Z,9.73
2023-06-15T14:40:23.928Z,9.32
2023-06-15T14:42:51.776Z,9.32
2023-06-15T14:45:21.272Z,9.65
2023-06-15T14:47:47.686Z,8.30
2023-06-15T14:50:13.968Z,9.57
2023-06-15T14:52:40.218Z,8.95
2023-06-15T14:55:06.573Z,10.60
2023-06-15T14:57:36.961Z,9.50
2023-06-15T15:00:03.215Z,9.20
2023-06-15T15:02:32.046Z,9.20
2023-06-15T15:04:58.415Z,9.20
2023-06-15T15:07:24.700Z,12.25
2023-06-15T15:09:51.189Z,8.80
2023-06-15T15:12:17.511Z,8.43
2023-06-15T15:14:43.814Z,8.73
2023-06-15T15:17:10.134Z,8.88
2023-06-15T15:19:36.476Z,9.40
2023-06-15T15:22:02.831Z,8.70
2023-06-15T15:24:30.765Z,9.40
2023-06-15T15:26:57.150Z,8.73
2023-06-15T15:29:23.498Z,9.40
2023-06-15T15:31:57.942Z,9.70
2023-06-15T15:34:32.548Z,9.60
2023-06-15T15:36:58.971Z,11.25
2023-06-15T15:39:30.082Z,8.90
2023-06-15T15:41:56.401Z,9.38
2023-06-15T15:44:22.698Z,8.95
2023-06-15T15:46:48.969Z,8.05
2023-06-15T15:49:18.143Z,9.93
2023-06-15T15:51:44.519Z,8.25
2023-06-15T15:54:12.518Z,9.25
2023-06-15T15:56:38.789Z,8.48
2023-06-15T15:59:05.053Z,8.32
2023-06-15T16:01:31.453Z,8.10
2023-06-15T16:04:00.999Z,8.43
2023-06-15T16:06:29.958Z,12.07
2023-06-15T16:08:57.864Z,9.23
2023-06-15T16:11:24.198Z,8.50
2023-06-15T16:13:52.907Z,8.77
2023-06-15T16:18:51.501Z,9.18
2023-06-15T16:21:17.924Z,9.85
2023-06-15T16:23:44.498Z,8.27
2023-06-15T16:26:18.238Z,8.18
2023-06-15T16:28:45.837Z,8.57
2023-06-15T16:31:15.298Z,9.68
2023-06-15T16:33:44.032Z,8.43
2023-06-15T16:36:14.424Z,7.82
2023-06-15T16:38:41.113Z,9.73
2023-06-15T16:41:07.369Z,10.75
2023-06-15T16:43:33.640Z,9.52
2023-06-15T16:46:02.613Z,11.27
2023-06-15T16:48:28.972Z,168.88
2023-06-15T16:50:58.778Z,208.70
2023-06-15T16:53:25.132Z,151.95
2023-06-15T16:55:51.426Z,108.57
2023-06-15T16:58:17.751Z,92.03
2023-06-15T17:00:44.432Z,100.00
2023-06-15T17:03:16.146Z,78.38
2023-06-15T17:05:42.755Z,56.08
2023-06-15T17:08:09.028Z,45.63
2023-06-15T17:10:35.281Z,38.30
2023-06-15T17:13:01.568Z,27.33
2023-06-15T17:15:27.855Z,535.65
2023-06-15T17:17:54.149Z,372.00
2023-06-15T17:20:23.442Z,418.35
2023-06-15T17:22:49.686Z,742.00
2023-06-15T17:25:16.406Z,659.38
2023-06-15T17:27:42.683Z,230.13
2023-06-15T17:30:08.957Z,101.75
2023-06-15T17:32:39.958Z,120.50
2023-06-15T17:35:07.665Z,72.18
2023-06-15T17:37:37.147Z,115.43
2023-06-15T17:40:03.976Z,125.63
2023-06-15T17:42:31.718Z,303.55
2023-06-15T17:45:06.320Z,356.58
2023-06-15T17:47:32.596Z,209.63
2023-06-15T17:50:08.928Z,353.70
2023-06-15T17:52:37.182Z,508.15
2023-06-15T17:55:03.973Z,163.57
2023-06-15T17:57:30.237Z,87.85
2023-06-15T17:59:56.500Z,72.30
2023-06-15T18:02:23.049Z,59.28
2023-06-15T18:04:49.316Z,101.28
2023-06-15T18:07:17.675Z,142.38
2023-06-15T18:09:47.329Z,80.30
2023-06-15T18:12:13.609Z,49.03
2023-06-15T18:14:41.088Z,31.60
2023-06-15T18:17:17.324Z,26.23
2023-06-15T18:19:43.583Z,14.02
2023-06-15T18:22:09.939Z,14.65
2023-06-15T18:24:36.353Z,13.00
2023-06-15T18:27:02.948Z,16.02
2023-06-15T18:29:30.467Z,15.95
2023-06-15T18:31:56.817Z,33.40
2023-06-15T18:34:23.179Z,17.00
2023-06-15T18:36:49.620Z,33.53
2023-06-15T18:39:16.875Z,17.33
2023-06-15T18:41:53.713Z,14.63
2023-06-15T18:44:30.103Z,22.02
2023-06-15T18:46:57.575Z,75.32
2023-06-15T18:49:27.951Z,78.60
2023-06-15T18:51:54.221Z,100.53
2023-06-15T18:54:20.663Z,147.77
2023-06-15T18:56:47.230Z,251.00
2023-06-15T18:59:13.498Z,278.10
2023-06-15T19:01:43.712Z,284.73
2023-06-15T19:04:10.004Z,308.40
2023-06-15T19:06:41.602Z,326.40
2023-06-15T19:09:07.864Z,311.65
2023-06-15T19:11:41.833Z,313.27
2023-06-15T19:14:08.186Z,312.52
2023-06-15T19:16:34.502Z,302.25
2023-06-15T19:19:03.783Z,301.20
2023-06-15T19:21:30.057Z,293.58
2023-06-15T19:23:59.914Z,291.20
2023-06-15T19:26:26.220Z,279.17
2023-06-15T19:28:52.495Z,279.88
2023-06-15T19:31:20.872Z,273.35
2023-06-15T19:33:49.337Z,272.45
2023-06-15T19:36:16.711Z,265.73
2023-06-15T19:38:57.505Z,250.18
2023-06-15T19:41:28.627Z,260.25
2023-06-15T19:43:57.148Z,284.13
2023-06-15T19:46:28.186Z,322.80
2023-06-15T19:48:54.513Z,299.38
2023-06-15T19:51:22.926Z,303.92
2023-06-15T19:53:49.270Z,271.67
2023-06-15T19:56:16.376Z,251.50
2023-06-15T19:58:47.635Z,247.43
2023-06-15T20:01:17.047Z,237.50
2023-06-15T20:03:43.733Z,235.75
2023-06-15T20:06:10.149Z,222.32
2023-06-15T20:08:36.416Z,218.82
2023-06-15T20:11:07.469Z,214.65
2023-06-15T20:13:36.035Z,214.35
2023-06-15T20:16:04.059Z,244.00
2023-06-15T20:18:32.340Z,258.60
2023-06-15T20:20:59.042Z,245.13
2023-06-15T20:23:25.326Z,247.18
2023-06-15T20:25:51.693Z,242.60
2023-06-15T20:28:17.955Z,236.23
2023-06-15T20:30:47.179Z,248.40
2023-06-15T20:33:15.408Z,207.57
2023-06-15T20:35:41.911Z,201.77
2023-06-15T20:38:10.646Z,211.80
2023-06-15T20:40:38.922Z,198.82
2023-06-15T20:43:05.208Z,181.48
2023-06-15T20:45:32.185Z,178.50
2023-06-15T20:47:58.617Z,165.27
2023-06-15T20:50:24.997Z,164.13
2023-06-15T20:52:53.249Z,168.07
2023-06-15T20:55:19.532Z,157.48
2023-06-15T20:57:45.802Z,150.48
2023-06-15T21:02:42.863Z,138.15
2023-06-15T21:05:12.312Z,146.63
2023-06-15T21:07:38.599Z,155.90
2023-06-15T21:10:05.027Z,174.07
2023-06-15T21:12:31.321Z,187.73
2023-06-15T21:14:57.679Z,168.45
2023-06-15T21:17:27.573Z,179.20
2023-06-15T21:19:53.940Z,164.80
2023-06-15T21:22:20.193Z,152.10
2023-06-15T21:24:51.670Z,132.05
2023-06-15T21:27:18.069Z,139.30
2023-06-15T21:29:54.354Z,126.72
2023-06-15T21:32:21.009Z,130.20
2023-06-15T21:34:55.573Z,121.72
2023-06-15T21:37:24.090Z,112.65
2023-06-15T21:39:51.533Z,106.63
2023-06-15T21:42:18.060Z,103.95
2023-06-15T21:44:44.793Z,107.70
2023-06-15T21:47:11.120Z,100.18
2023-06-15T21:49:37.447Z,105.88
2023-06-15T21:52:03.717Z,99.80
2023-06-15T21:54:30.167Z,101.05
2023-06-15T21:56:56.440Z,103.72
2023-06-15T21:59:24.234Z,106.15
2023-06-15T22:01:50.540Z,119.68
2023-06-15T22:04:18.773Z,109.07
2023-06-15T22:06:45.063Z,101.75
2023-06-15T22:09:11.969Z,99.28
2023-06-15T22:11:38.573Z,97.28
2023-06-15T22:14:04.809Z,99.35
2023-06-15T22:16:34.841Z,228.43
2023-06-15T22:19:01.262Z,157.82
2023-06-15T22:21:28.923Z,126.63
2023-06-15T22:23:55.228Z,135.82
2023-06-15T22:26:24.359Z,155.00
2023-06-15T22:28:50.831Z,161.10
2023-06-15T22:31:17.195Z,175.05
2023-06-15T22:33:43.501Z,202.55
2023-06-15T22:36:09.840Z,179.65
2023-06-15T22:38:36.126Z,151.25
2023-06-15T22:41:03.654Z,157.57
2023-06-15T22:43:32.333Z,151.90
2023-06-15T22:46:00.414Z,140.05
2023-06-15T22:48:26.693Z,142.10
2023-06-15T22:50:52.936Z,180.93
2023-06-15T22:53:19.235Z,185.05
2023-06-15T22:55:45.523Z,220.00
2023-06-15T22:58:11.802Z,195.88
2023-06-15T23:00:38.146Z,208.20
2023-06-15T23:03:14.446Z,170.18
2023-06-15T23:05:40.707Z,157.57
2023-06-15T23:08:07.084Z,160.20
2023-06-15T23:10:43.323Z,159.68
2023-06-15T23:13:12.410Z,179.75
2023-06-15T23:15:38.789Z,156.93
2023-06-15T23:18:08.510Z,173.57
2023-06-15T23:20:34.813Z,164.88
2023-06-15T23:23:02.043Z,154.40
2023-06-15T23:25:28.309Z,162.32
2023-06-15T23:27:54.646Z,152.88
2023-06-15T23:30:27.035Z,153.32
2023-06-15T23:32:53.469Z,155.90
2023-06-15T23:35:20.201Z,145.23
2023-06-15T23:37:48.817Z,149.57
2023-06-15T23:40:15.297Z,152.48
2023-06-15T23:42:41.631Z,147.15
2023-06-15T23:45:09.625Z,138.75
2023-06-15T23:47:36.349Z,136.43
2023-06-15T23:50:03.784Z,139.23
2023-06-15T23:52:32.469Z,141.15
2023-06-15T23:54:58.703Z,129.55
2023-06-15T23:57:24.979Z,125.00
2023-06-15T23:59:51.317Z,127.22
